Terminal Aerodrome Forecast
Issued by NWS

Home | Current Version | Previous Version | Text Only | Print | Product List | Glossary On
Versions: 1 2 3 4 5 6 7 8 9 10 11 12 13 14 15 16 17 18
000
FTUS45 KABQ 012300
TAFROW
TAF
KROW 012340Z 0200/0224 22008KT P6SM SCT035 BKN070
     FM020200 02006KT P6SM VCSH SCT035 OVC050
     FM020800 VRB06KT P6SM BKN025
     FM021600 16007KT P6SM BKN035=

USA.gov is the U.S. government's official web portal to all federal, state and local government web resources and services.